sensor_id;sensor_type;location;lat;lon;timestamp;temperature;humidity
16955;DHT22;8594;52.052;8.354;2022-12-07T00:00:54;6.00;99.90
16955;DHT22;8594;52.052;8.354;2022-12-07T00:03:22;6.00;99.90
16955;DHT22;8594;52.052;8.354;2022-12-07T00:05:49;5.90;99.90
16955;DHT22;8594;52.052;8.354;2022-12-07T00:08:15;6.10;99.90
16955;DHT22;8594;52.052;8.354;2022-12-07T00:10:42;6.10;99.90
16955;DHT22;8594;52.052;8.354;2022-12-07T00:13:09;6.00;99.90
16955;DHT22;8594;52.052;8.354;2022-12-07T00:15:37;6.00;99.90
16955;DHT22;8594;52.052;8.354;2022-12-07T00:18:04;5.90;99.90
16955;DHT22;8594;52.052;8.354;2022-12-07T00:20:31;5.80;99.90
16955;DHT22;8594;52.052;8.354;2022-12-07T00:22:58;6.00;99.90
16955;DHT22;8594;52.052;8.354;2022-12-07T00:25:26;6.00;99.90
16955;DHT22;8594;52.052;8.354;2022-12-07T00:27:53;5.90;99.90
16955;DHT22;8594;52.052;8.354;2022-12-07T00:30:22;6.10;99.90
16955;DHT22;8594;52.052;8.354;2022-12-07T00:32:51;6.00;99.90
16955;DHT22;8594;52.052;8.354;2022-12-07T00:35:17;6.10;99.90
16955;DHT22;8594;52.052;8.354;2022-12-07T00:37:44;6.10;99.90
16955;DHT22;8594;52.052;8.354;2022-12-07T00:40:12;6.10;99.90
16955;DHT22;8594;52.052;8.354;2022-12-07T00:42:39;6.10;99.90
16955;DHT22;8594;52.052;8.354;2022-12-07T00:45:07;6.00;99.90
16955;DHT22;8594;52.052;8.354;2022-12-07T00:47:35;6.00;99.90
16955;DHT22;8594;52.052;8.354;2022-12-07T00:50:04;6.00;99.90
16955;DHT22;8594;52.052;8.354;2022-12-07T00:52:31;6.10;99.90
16955;DHT22;8594;52.052;8.354;2022-12-07T00:54:58;6.00;99.90
16955;DHT22;8594;52.052;8.354;2022-12-07T00:57:25;6.00;99.90
16955;DHT22;8594;52.052;8.354;2022-12-07T00:59:52;6.20;99.90
16955;DHT22;8594;52.052;8.354;2022-12-07T01:02:20;6.10;99.90
16955;DHT22;8594;52.052;8.354;2022-12-07T01:04:47;6.20;99.90
16955;DHT22;8594;52.052;8.354;2022-12-07T01:07:16;6.20;99.90
16955;DHT22;8594;52.052;8.354;2022-12-07T01:09:43;6.00;99.90
16955;DHT22;8594;52.052;8.354;2022-12-07T01:12:10;6.20;99.90
16955;DHT22;8594;52.052;8.354;2022-12-07T01:14:37;6.10;99.90
16955;DHT22;8594;52.052;8.354;2022-12-07T01:17:04;6.20;99.90
16955;DHT22;8594;52.052;8.354;2022-12-07T01:19:31;6.20;99.90
16955;DHT22;8594;52.052;8.354;2022-12-07T01:21:58;6.10;99.90
16955;DHT22;8594;52.052;8.354;2022-12-07T01:24:26;6.20;99.90
16955;DHT22;8594;52.052;8.354;2022-12-07T01:26:53;6.30;99.90
16955;DHT22;8594;52.052;8.354;2022-12-07T01:29:20;6.30;99.90
16955;DHT22;8594;52.052;8.354;2022-12-07T01:31:48;6.20;99.90
16955;DHT22;8594;52.052;8.354;2022-12-07T01:34:15;6.20;99.90
16955;DHT22;8594;52.052;8.354;2022-12-07T01:36:42;6.30;99.90
16955;DHT22;8594;52.052;8.354;2022-12-07T01:39:09;6.30;99.90
16955;DHT22;8594;52.052;8.354;2022-12-07T01:41:39;6.30;99.90
16955;DHT22;8594;52.052;8.354;2022-12-07T01:44:15;6.30;99.90
16955;DHT22;8594;52.052;8.354;2022-12-07T01:46:52;6.40;99.90
16955;DHT22;8594;52.052;8.354;2022-12-07T01:49:32;6.10;99.90
16955;DHT22;8594;52.052;8.354;2022-12-07T01:52:13;6.10;99.90
16955;DHT22;8594;52.052;8.354;2022-12-07T01:54:43;6.10;99.90
16955;DHT22;8594;52.052;8.354;2022-12-07T01:57:15;6.10;99.90
16955;DHT22;8594;52.052;8.354;2022-12-07T01:59:43;6.20;99.90
16955;DHT22;8594;52.052;8.354;2022-12-07T02:02:18;6.10;99.90
16955;DHT22;8594;52.052;8.354;2022-12-07T02:04:46;6.20;99.90
16955;DHT22;8594;52.052;8.354;2022-12-07T02:07:14;6.10;99.90
16955;DHT22;8594;52.052;8.354;2022-12-07T02:09:41;6.20;99.90
16955;DHT22;8594;52.052;8.354;2022-12-07T02:12:08;6.20;99.90
16955;DHT22;8594;52.052;8.354;2022-12-07T02:14:37;6.20;99.90
16955;DHT22;8594;52.052;8.354;2022-12-07T02:17:09;6.30;99.90
16955;DHT22;8594;52.052;8.354;2022-12-07T02:20:08;6.40;99.90
16955;DHT22;8594;52.052;8.354;2022-12-07T02:23:00;6.20;99.90
16955;DHT22;8594;52.052;8.354;2022-12-07T02:28:56;6.20;99.90
16955;DHT22;8594;52.052;8.354;2022-12-07T02:31:43;6.30;99.90
16955;DHT22;8594;52.052;8.354;2022-12-07T02:34:19;6.20;99.90
16955;DHT22;8594;52.052;8.354;2022-12-07T02:36:55;6.20;99.90
16955;DHT22;8594;52.052;8.354;2022-12-07T02:39:32;6.10;99.90
16955;DHT22;8594;52.052;8.354;2022-12-07T02:42:09;6.20;99.90
16955;DHT22;8594;52.052;8.354;2022-12-07T02:44:43;6.20;99.90
16955;DHT22;8594;52.052;8.354;2022-12-07T02:47:14;6.10;99.90
16955;DHT22;8594;52.052;8.354;2022-12-07T02:49:43;6.00;99.90
16955;DHT22;8594;52.052;8.354;2022-12-07T02:52:11;6.00;99.90
16955;DHT22;8594;52.052;8.354;2022-12-07T02:54:38;6.10;99.90
16955;DHT22;8594;52.052;8.354;2022-12-07T02:57:14;6.00;99.90
16955;DHT22;8594;52.052;8.354;2022-12-07T03:00:03;6.20;99.90
16955;DHT22;8594;52.052;8.354;2022-12-07T03:02:41;5.90;99.90
16955;DHT22;8594;52.052;8.354;2022-12-07T03:08:38;5.90;99.90
16955;DHT22;8594;52.052;8.354;2022-12-07T03:11:19;5.90;99.90
16955;DHT22;8594;52.052;8.354;2022-12-07T03:13:55;6.00;99.90
16955;DHT22;8594;52.052;8.354;2022-12-07T03:16:33;5.80;99.90
16955;DHT22;8594;52.052;8.354;2022-12-07T03:19:08;6.00;99.90
16955;DHT22;8594;52.052;8.354;2022-12-07T03:21:42;5.80;99.90
16955;DHT22;8594;52.052;8.354;2022-12-07T03:24:15;5.70;99.90
16955;DHT22;8594;52.052;8.354;2022-12-07T03:26:48;5.70;99.90
16955;DHT22;8594;52.052;8.354;2022-12-07T03:29:20;5.70;99.90
16955;DHT22;8594;52.052;8.354;2022-12-07T03:31:58;5.70;99.90
16955;DHT22;8594;52.052;8.354;2022-12-07T03:34:32;5.70;99.90
16955;DHT22;8594;52.052;8.354;2022-12-07T03:37:05;5.60;99.90
16955;DHT22;8594;52.052;8.354;2022-12-07T03:39:39;5.70;99.90
16955;DHT22;8594;52.052;8.354;2022-12-07T03:42:11;5.70;99.90
16955;DHT22;8594;52.052;8.354;2022-12-07T03:44:39;5.70;99.90
16955;DHT22;8594;52.052;8.354;2022-12-07T03:47:12;5.60;99.90
16955;DHT22;8594;52.052;8.354;2022-12-07T03:49:51;5.70;99.90
16955;DHT22;8594;52.052;8.354;2022-12-07T03:52:27;5.70;99.90
16955;DHT22;8594;52.052;8.354;2022-12-07T03:55:02;5.50;99.90
16955;DHT22;8594;52.052;8.354;2022-12-07T03:57:34;5.50;99.90
16955;DHT22;8594;52.052;8.354;2022-12-07T04:00:05;5.60;99.90
16955;DHT22;8594;52.052;8.354;2022-12-07T04:02:35;5.60;99.90
16955;DHT22;8594;52.052;8.354;2022-12-07T04:05:03;5.50;99.90
16955;DHT22;8594;52.052;8.354;2022-12-07T04:07:31;5.50;99.90
16955;DHT22;8594;52.052;8.354;2022-12-07T04:09:58;5.40;99.90
16955;DHT22;8594;52.052;8.354;2022-12-07T04:12:25;5.60;99.90
16955;DHT22;8594;52.052;8.354;2022-12-07T04:14:52;5.60;99.90
16955;DHT22;8594;52.052;8.354;2022-12-07T04:17:19;5.80;99.90
16955;DHT22;8594;52.052;8.354;2022-12-07T04:19:47;5.80;99.90
16955;DHT22;8594;52.052;8.354;2022-12-07T04:22:14;5.60;99.90
16955;DHT22;8594;52.052;8.354;2022-12-07T04:24:41;5.70;99.90
16955;DHT22;8594;52.052;8.354;2022-12-07T04:27:08;5.70;99.90
16955;DHT22;8594;52.052;8.354;2022-12-07T04:29:35;5.60;99.90
16955;DHT22;8594;52.052;8.354;2022-12-07T04:32:02;5.60;99.90
16955;DHT22;8594;52.052;8.354;2022-12-07T04:34:29;5.40;99.90
16955;DHT22;8594;52.052;8.354;2022-12-07T04:36:57;5.40;99.90
16955;DHT22;8594;52.052;8.354;2022-12-07T04:39:27;5.40;99.90
16955;DHT22;8594;52.052;8.354;2022-12-07T04:41:56;5.30;99.90
16955;DHT22;8594;52.052;8.354;2022-12-07T04:44:25;5.40;99.90
16955;DHT22;8594;52.052;8.354;2022-12-07T04:46:53;5.30;99.90
16955;DHT22;8594;52.052;8.354;2022-12-07T04:49:21;5.30;99.90
16955;DHT22;8594;52.052;8.354;2022-12-07T04:51:48;5.20;99.90
16955;DHT22;8594;52.052;8.354;2022-12-07T04:54:17;5.20;99.90
16955;DHT22;8594;52.052;8.354;2022-12-07T04:56:45;5.10;99.90
16955;DHT22;8594;52.052;8.354;2022-12-07T04:59:12;5.10;99.90
16955;DHT22;8594;52.052;8.354;2022-12-07T05:01:40;5.20;99.90
16955;DHT22;8594;52.052;8.354;2022-12-07T05:04:08;5.20;99.90
16955;DHT22;8594;52.052;8.354;2022-12-07T05:06:35;5.20;99.90
16955;DHT22;8594;52.052;8.354;2022-12-07T05:09:03;5.20;99.90
16955;DHT22;8594;52.052;8.354;2022-12-07T05:11:31;5.30;99.90
16955;DHT22;8594;52.052;8.354;2022-12-07T05:14:07;5.20;99.90
16955;DHT22;8594;52.052;8.354;2022-12-07T05:16:36;5.20;99.90
16955;DHT22;8594;52.052;8.354;2022-12-07T05:19:04;5.20;99.90
16955;DHT22;8594;52.052;8.354;2022-12-07T05:21:31;5.30;99.90
16955;DHT22;8594;52.052;8.354;2022-12-07T05:23:58;5.20;99.90
16955;DHT22;8594;52.052;8.354;2022-12-07T05:26:25;5.30;99.90
16955;DHT22;8594;52.052;8.354;2022-12-07T05:28:55;5.20;99.90
16955;DHT22;8594;52.052;8.354;2022-12-07T05:31:24;5.20;99.90
16955;DHT22;8594;52.052;8.354;2022-12-07T05:33:51;5.10;99.90
16955;DHT22;8594;52.052;8.354;2022-12-07T05:36:19;5.10;99.90
16955;DHT22;8594;52.052;8.354;2022-12-07T05:38:46;5.20;99.90
16955;DHT22;8594;52.052;8.354;2022-12-07T05:41:15;5.10;99.90
16955;DHT22;8594;52.052;8.354;2022-12-07T05:44:03;5.10;99.90
16955;DHT22;8594;52.052;8.354;2022-12-07T05:46:30;5.00;99.90
16955;DHT22;8594;52.052;8.354;2022-12-07T05:48:57;4.80;99.90
16955;DHT22;8594;52.052;8.354;2022-12-07T05:51:24;4.80;99.90
16955;DHT22;8594;52.052;8.354;2022-12-07T05:53:51;4.90;99.90
16955;DHT22;8594;52.052;8.354;2022-12-07T05:56:18;4.90;99.90
16955;DHT22;8594;52.052;8.354;2022-12-07T05:58:45;5.00;99.90
16955;DHT22;8594;52.052;8.354;2022-12-07T06:01:31;4.90;99.90
16955;DHT22;8594;52.052;8.354;2022-12-07T06:03:58;4.80;99.90
16955;DHT22;8594;52.052;8.354;2022-12-07T06:06:25;4.90;99.90
16955;DHT22;8594;52.052;8.354;2022-12-07T06:08:52;4.70;99.90
16955;DHT22;8594;52.052;8.354;2022-12-07T06:11:19;4.80;99.90
16955;DHT22;8594;52.052;8.354;2022-12-07T06:14:04;4.70;99.90
16955;DHT22;8594;52.052;8.354;2022-12-07T06:16:32;4.60;99.90
16955;DHT22;8594;52.052;8.354;2022-12-07T06:18:59;4.60;99.90
16955;DHT22;8594;52.052;8.354;2022-12-07T06:21:26;4.60;99.90
16955;DHT22;8594;52.052;8.354;2022-12-07T06:23:53;4.50;99.90
16955;DHT22;8594;52.052;8.354;2022-12-07T06:26:20;4.60;99.90
16955;DHT22;8594;52.052;8.354;2022-12-07T06:28:47;4.50;99.90
16955;DHT22;8594;52.052;8.354;2022-12-07T06:31:14;4.50;99.90
16955;DHT22;8594;52.052;8.354;2022-12-07T06:33:43;4.60;99.90
16955;DHT22;8594;52.052;8.354;2022-12-07T06:36:10;4.60;99.90
16955;DHT22;8594;52.052;8.354;2022-12-07T06:38:37;4.60;99.90
16955;DHT22;8594;52.052;8.354;2022-12-07T06:41:04;4.70;99.90
16955;DHT22;8594;52.052;8.354;2022-12-07T06:43:32;4.60;99.90
16955;DHT22;8594;52.052;8.354;2022-12-07T06:45:59;4.60;99.90
16955;DHT22;8594;52.052;8.354;2022-12-07T06:48:26;4.50;99.90
16955;DHT22;8594;52.052;8.354;2022-12-07T06:50:54;4.50;99.90
16955;DHT22;8594;52.052;8.354;2022-12-07T06:53:21;4.70;99.90
16955;DHT22;8594;52.052;8.354;2022-12-07T06:55:49;4.40;99.90
16955;DHT22;8594;52.052;8.354;2022-12-07T06:58:17;4.60;99.90
16955;DHT22;8594;52.052;8.354;2022-12-07T07:00:44;4.80;99.90
16955;DHT22;8594;52.052;8.354;2022-12-07T07:03:11;4.80;99.90
16955;DHT22;8594;52.052;8.354;2022-12-07T07:05:38;4.70;99.90
16955;DHT22;8594;52.052;8.354;2022-12-07T07:08:07;4.90;99.90
16955;DHT22;8594;52.052;8.354;2022-12-07T07:10:34;4.80;99.90
16955;DHT22;8594;52.052;8.354;2022-12-07T07:13:02;4.80;99.90
16955;DHT22;8594;52.052;8.354;2022-12-07T07:15:30;4.80;99.90
16955;DHT22;8594;52.052;8.354;2022-12-07T07:17:58;4.90;99.90
16955;DHT22;8594;52.052;8.354;2022-12-07T07:20:25;4.90;99.90
16955;DHT22;8594;52.052;8.354;2022-12-07T07:22:54;4.80;99.90
16955;DHT22;8594;52.052;8.354;2022-12-07T07:25:23;4.80;99.90
16955;DHT22;8594;52.052;8.354;2022-12-07T07:27:50;4.70;99.90
16955;DHT22;8594;52.052;8.354;2022-12-07T07:30:17;4.70;99.90
16955;DHT22;8594;52.052;8.354;2022-12-07T07:32:44;4.90;99.90
16955;DHT22;8594;52.052;8.354;2022-12-07T07:35:11;4.90;99.90
16955;DHT22;8594;52.052;8.354;2022-12-07T07:37:39;4.80;99.90
16955;DHT22;8594;52.052;8.354;2022-12-07T07:40:07;4.80;99.90
16955;DHT22;8594;52.052;8.354;2022-12-07T07:42:36;4.80;99.90
16955;DHT22;8594;52.052;8.354;2022-12-07T07:45:03;4.90;99.90
16955;DHT22;8594;52.052;8.354;2022-12-07T07:47:31;4.80;99.90
16955;DHT22;8594;52.052;8.354;2022-12-07T07:49:58;4.90;99.90
16955;DHT22;8594;52.052;8.354;2022-12-07T07:52:25;5.00;99.90
16955;DHT22;8594;52.052;8.354;2022-12-07T07:54:52;4.90;99.90
16955;DHT22;8594;52.052;8.354;2022-12-07T07:57:19;4.90;99.90
16955;DHT22;8594;52.052;8.354;2022-12-07T07:59:48;4.80;99.90
16955;DHT22;8594;52.052;8.354;2022-12-07T08:02:16;4.90;99.90
16955;DHT22;8594;52.052;8.354;2022-12-07T08:04:45;5.10;99.90
16955;DHT22;8594;52.052;8.354;2022-12-07T08:07:13;5.00;99.90
16955;DHT22;8594;52.052;8.354;2022-12-07T08:09:42;4.90;99.90
16955;DHT22;8594;52.052;8.354;2022-12-07T08:12:09;5.00;99.90
16955;DHT22;8594;52.052;8.354;2022-12-07T08:14:36;5.10;99.90
16955;DHT22;8594;52.052;8.354;2022-12-07T08:17:04;5.20;99.90
16955;DHT22;8594;52.052;8.354;2022-12-07T08:19:31;5.20;99.90
16955;DHT22;8594;52.052;8.354;2022-12-07T08:21:58;4.90;99.90
16955;DHT22;8594;52.052;8.354;2022-12-07T08:24:25;5.00;99.90
16955;DHT22;8594;52.052;8.354;2022-12-07T08:26:52;5.00;99.90
16955;DHT22;8594;52.052;8.354;2022-12-07T08:29:19;5.10;99.90
16955;DHT22;8594;52.052;8.354;2022-12-07T08:31:46;5.10;99.90
16955;DHT22;8594;52.052;8.354;2022-12-07T08:34:15;5.00;99.90
16955;DHT22;8594;52.052;8.354;2022-12-07T08:36:42;4.80;99.90
16955;DHT22;8594;52.052;8.354;2022-12-07T08:39:09;4.90;99.90
16955;DHT22;8594;52.052;8.354;2022-12-07T08:41:36;4.80;99.90
16955;DHT22;8594;52.052;8.354;2022-12-07T08:44:03;4.90;99.90
16955;DHT22;8594;52.052;8.354;2022-12-07T08:46:33;4.90;99.90
16955;DHT22;8594;52.052;8.354;2022-12-07T08:49:08;4.90;99.90
16955;DHT22;8594;52.052;8.354;2022-12-07T08:51:40;4.90;99.90
16955;DHT22;8594;52.052;8.354;2022-12-07T08:54:10;4.90;99.90
16955;DHT22;8594;52.052;8.354;2022-12-07T08:56:39;4.90;99.90
16955;DHT22;8594;52.052;8.354;2022-12-07T08:59:07;5.10;99.90
16955;DHT22;8594;52.052;8.354;2022-12-07T09:01:34;5.10;99.90
16955;DHT22;8594;52.052;8.354;2022-12-07T09:04:01;5.10;99.90
16955;DHT22;8594;52.052;8.354;2022-12-07T09:06:28;5.10;99.90
16955;DHT22;8594;52.052;8.354;2022-12-07T09:08:58;5.20;99.90
16955;DHT22;8594;52.052;8.354;2022-12-07T09:11:26;5.20;99.90
16955;DHT22;8594;52.052;8.354;2022-12-07T09:13:53;5.40;99.90
16955;DHT22;8594;52.052;8.354;2022-12-07T09:16:20;5.30;99.90
16955;DHT22;8594;52.052;8.354;2022-12-07T09:18:47;5.30;99.90
16955;DHT22;8594;52.052;8.354;2022-12-07T09:21:14;5.40;99.90
16955;DHT22;8594;52.052;8.354;2022-12-07T09:23:41;5.40;99.90
16955;DHT22;8594;52.052;8.354;2022-12-07T09:26:10;5.20;99.90
16955;DHT22;8594;52.052;8.354;2022-12-07T09:28:37;5.30;99.90
16955;DHT22;8594;52.052;8.354;2022-12-07T09:31:05;5.30;99.90
16955;DHT22;8594;52.052;8.354;2022-12-07T09:33:32;5.30;99.90
16955;DHT22;8594;52.052;8.354;2022-12-07T09:35:59;5.20;99.90
16955;DHT22;8594;52.052;8.354;2022-12-07T09:38:26;5.20;99.90
16955;DHT22;8594;52.052;8.354;2022-12-07T09:40:55;5.20;99.90
16955;DHT22;8594;52.052;8.354;2022-12-07T09:43:24;5.20;99.90
16955;DHT22;8594;52.052;8.354;2022-12-07T09:45:54;5.30;99.90
16955;DHT22;8594;52.052;8.354;2022-12-07T09:48:25;5.20;99.90
16955;DHT22;8594;52.052;8.354;2022-12-07T09:50:57;5.40;99.90
16955;DHT22;8594;52.052;8.354;2022-12-07T09:53:28;5.30;99.90
16955;DHT22;8594;52.052;8.354;2022-12-07T09:56:00;5.20;99.90
16955;DHT22;8594;52.052;8.354;2022-12-07T09:58:30;5.40;99.90
16955;DHT22;8594;52.052;8.354;2022-12-07T10:01:01;5.40;99.90
16955;DHT22;8594;52.052;8.354;2022-12-07T10:03:42;5.50;99.90
16955;DHT22;8594;52.052;8.354;2022-12-07T10:06:13;5.50;99.90
16955;DHT22;8594;52.052;8.354;2022-12-07T10:08:40;5.40;99.90
16955;DHT22;8594;52.052;8.354;2022-12-07T10:11:09;5.50;99.90
16955;DHT22;8594;52.052;8.354;2022-12-07T10:13:40;5.40;99.90
16955;DHT22;8594;52.052;8.354;2022-12-07T10:16:35;5.30;99.90
16955;DHT22;8594;52.052;8.354;2022-12-07T10:19:19;5.40;99.90
16955;DHT22;8594;52.052;8.354;2022-12-07T10:22:16;5.70;99.90
16955;DHT22;8594;52.052;8.354;2022-12-07T10:24:46;5.90;99.90
16955;DHT22;8594;52.052;8.354;2022-12-07T10:27:21;5.90;99.90
16955;DHT22;8594;52.052;8.354;2022-12-07T10:29:54;6.00;99.90
16955;DHT22;8594;52.052;8.354;2022-12-07T10:32:32;6.20;99.90
16955;DHT22;8594;52.052;8.354;2022-12-07T10:35:25;6.10;99.90
16955;DHT22;8594;52.052;8.354;2022-12-07T10:37:54;6.20;99.90
16955;DHT22;8594;52.052;8.354;2022-12-07T10:40:31;6.00;99.90
16955;DHT22;8594;52.052;8.354;2022-12-07T10:43:02;6.00;99.90
16955;DHT22;8594;52.052;8.354;2022-12-07T10:45:34;6.10;99.90
16955;DHT22;8594;52.052;8.354;2022-12-07T10:48:08;6.30;99.90
16955;DHT22;8594;52.052;8.354;2022-12-07T10:50:55;6.40;99.90
16955;DHT22;8594;52.052;8.354;2022-12-07T10:53:40;6.40;99.90
16955;DHT22;8594;52.052;8.354;2022-12-07T10:56:39;6.30;99.90
16955;DHT22;8594;52.052;8.354;2022-12-07T11:02:44;6.40;99.90
16955;DHT22;8594;52.052;8.354;2022-12-07T11:05:29;6.40;99.90
16955;DHT22;8594;52.052;8.354;2022-12-07T11:08:12;6.30;99.90
16955;DHT22;8594;52.052;8.354;2022-12-07T11:10:50;6.10;99.90
16955;DHT22;8594;52.052;8.354;2022-12-07T11:13:28;6.10;99.90
16955;DHT22;8594;52.052;8.354;2022-12-07T11:16:19;5.90;99.90
16955;DHT22;8594;52.052;8.354;2022-12-07T11:19:04;6.10;99.90
16955;DHT22;8594;52.052;8.354;2022-12-07T11:21:51;6.30;99.90
16955;DHT22;8594;52.052;8.354;2022-12-07T11:24:27;6.40;99.90
16955;DHT22;8594;52.052;8.354;2022-12-07T11:27:11;6.50;99.90
16955;DHT22;8594;52.052;8.354;2022-12-07T11:29:56;6.60;99.90
16955;DHT22;8594;52.052;8.354;2022-12-07T11:32:43;6.70;99.90
16955;DHT22;8594;52.052;8.354;2022-12-07T11:35:24;6.70;99.90
16955;DHT22;8594;52.052;8.354;2022-12-07T11:38:08;6.70;99.90
16955;DHT22;8594;52.052;8.354;2022-12-07T11:40:40;6.70;99.90
16955;DHT22;8594;52.052;8.354;2022-12-07T11:43:18;6.70;99.90
16955;DHT22;8594;52.052;8.354;2022-12-07T11:45:54;6.70;99.90
16955;DHT22;8594;52.052;8.354;2022-12-07T11:48:31;6.70;99.90
16955;DHT22;8594;52.052;8.354;2022-12-07T11:51:03;6.60;99.90
16955;DHT22;8594;52.052;8.354;2022-12-07T11:53:36;6.80;99.90
16955;DHT22;8594;52.052;8.354;2022-12-07T11:56:09;6.80;99.90
16955;DHT22;8594;52.052;8.354;2022-12-07T11:58:45;6.70;99.90
16955;DHT22;8594;52.052;8.354;2022-12-07T12:01:26;6.70;99.90
16955;DHT22;8594;52.052;8.354;2022-12-07T12:04:06;6.80;99.90
16955;DHT22;8594;52.052;8.354;2022-12-07T12:06:42;6.80;99.90
16955;DHT22;8594;52.052;8.354;2022-12-07T12:09:13;7.10;99.90
16955;DHT22;8594;52.052;8.354;2022-12-07T12:12:02;7.40;99.90
16955;DHT22;8594;52.052;8.354;2022-12-07T12:14:47;7.10;99.90
16955;DHT22;8594;52.052;8.354;2022-12-07T12:17:49;7.30;99.90
16955;DHT22;8594;52.052;8.354;2022-12-07T12:20:27;7.10;99.90
16955;DHT22;8594;52.052;8.354;2022-12-07T12:23:06;7.20;99.90
16955;DHT22;8594;52.052;8.354;2022-12-07T12:25:40;7.20;99.90
16955;DHT22;8594;52.052;8.354;2022-12-07T12:28:22;6.70;99.90
16955;DHT22;8594;52.052;8.354;2022-12-07T12:31:09;6.70;99.90
16955;DHT22;8594;52.052;8.354;2022-12-07T12:33:43;6.70;99.90
16955;DHT22;8594;52.052;8.354;2022-12-07T12:36:43;6.60;99.90
16955;DHT22;8594;52.052;8.354;2022-12-07T12:39:14;6.80;99.90
16955;DHT22;8594;52.052;8.354;2022-12-07T12:41:55;7.00;99.90
16955;DHT22;8594;52.052;8.354;2022-12-07T12:44:40;7.30;99.90
16955;DHT22;8594;52.052;8.354;2022-12-07T12:50:26;7.40;99.90
16955;DHT22;8594;52.052;8.354;2022-12-07T12:53:01;7.30;99.90
16955;DHT22;8594;52.052;8.354;2022-12-07T12:55:54;7.50;99.90
16955;DHT22;8594;52.052;8.354;2022-12-07T12:58:39;7.30;99.90
16955;DHT22;8594;52.052;8.354;2022-12-07T13:01:43;7.40;99.90
16955;DHT22;8594;52.052;8.354;2022-12-07T13:04:38;7.10;99.90
16955;DHT22;8594;52.052;8.354;2022-12-07T13:07:51;6.90;99.90
16955;DHT22;8594;52.052;8.354;2022-12-07T13:10:27;7.00;99.90
16955;DHT22;8594;52.052;8.354;2022-12-07T13:13:08;6.90;99.90
16955;DHT22;8594;52.052;8.354;2022-12-07T13:16:36;6.80;99.90
16955;DHT22;8594;52.052;8.354;2022-12-07T13:22:49;6.70;99.90
16955;DHT22;8594;52.052;8.354;2022-12-07T13:25:27;6.80;99.90
16955;DHT22;8594;52.052;8.354;2022-12-07T13:28:07;6.60;99.90
16955;DHT22;8594;52.052;8.354;2022-12-07T13:30:45;6.70;99.90
16955;DHT22;8594;52.052;8.354;2022-12-07T13:33:17;6.80;99.90
16955;DHT22;8594;52.052;8.354;2022-12-07T13:35:45;6.70;99.90
16955;DHT22;8594;52.052;8.354;2022-12-07T13:38:27;6.70;99.90
16955;DHT22;8594;52.052;8.354;2022-12-07T13:41:03;6.50;99.90
16955;DHT22;8594;52.052;8.354;2022-12-07T13:43:45;6.70;99.90
16955;DHT22;8594;52.052;8.354;2022-12-07T13:46:14;6.80;99.90
16955;DHT22;8594;52.052;8.354;2022-12-07T13:48:45;6.80;99.90
16955;DHT22;8594;52.052;8.354;2022-12-07T13:51:19;6.80;99.90
16955;DHT22;8594;52.052;8.354;2022-12-07T13:53:50;6.70;99.90
16955;DHT22;8594;52.052;8.354;2022-12-07T13:56:21;6.80;99.90
16955;DHT22;8594;52.052;8.354;2022-12-07T13:58:54;6.70;99.90
16955;DHT22;8594;52.052;8.354;2022-12-07T14:01:21;6.60;99.90
16955;DHT22;8594;52.052;8.354;2022-12-07T14:03:49;6.60;99.90
16955;DHT22;8594;52.052;8.354;2022-12-07T14:06:23;6.80;99.90
16955;DHT22;8594;52.052;8.354;2022-12-07T14:09:06;6.70;99.90
16955;DHT22;8594;52.052;8.354;2022-12-07T14:11:34;6.50;99.90
16955;DHT22;8594;52.052;8.354;2022-12-07T14:14:04;6.60;99.90
16955;DHT22;8594;52.052;8.354;2022-12-07T14:16:33;6.60;99.90
16955;DHT22;8594;52.052;8.354;2022-12-07T14:19:02;6.50;99.90
16955;DHT22;8594;52.052;8.354;2022-12-07T14:21:32;6.40;99.90
16955;DHT22;8594;52.052;8.354;2022-12-07T14:24:16;6.50;99.90
16955;DHT22;8594;52.052;8.354;2022-12-07T14:26:45;6.60;99.90
16955;DHT22;8594;52.052;8.354;2022-12-07T14:29:29;6.60;99.90
16955;DHT22;8594;52.052;8.354;2022-12-07T14:32:13;6.50;99.90
16955;DHT22;8594;52.052;8.354;2022-12-07T14:35:02;6.30;99.90
16955;DHT22;8594;52.052;8.354;2022-12-07T14:37:36;6.40;99.90
16955;DHT22;8594;52.052;8.354;2022-12-07T14:40:05;6.40;99.90
16955;DHT22;8594;52.052;8.354;2022-12-07T14:42:34;6.50;99.90
16955;DHT22;8594;52.052;8.354;2022-12-07T14:45:03;6.50;99.90
16955;DHT22;8594;52.052;8.354;2022-12-07T14:47:31;6.70;99.90
16955;DHT22;8594;52.052;8.354;2022-12-07T14:49:58;6.60;99.90
16955;DHT22;8594;52.052;8.354;2022-12-07T14:52:28;6.50;99.90
16955;DHT22;8594;52.052;8.354;2022-12-07T14:54:56;6.40;99.90
16955;DHT22;8594;52.052;8.354;2022-12-07T14:57:23;6.40;99.90
16955;DHT22;8594;52.052;8.354;2022-12-07T14:59:49;6.30;99.90
16955;DHT22;8594;52.052;8.354;2022-12-07T15:02:18;6.40;99.90
16955;DHT22;8594;52.052;8.354;2022-12-07T15:04:45;6.40;99.90
16955;DHT22;8594;52.052;8.354;2022-12-07T15:07:16;6.30;99.90
16955;DHT22;8594;52.052;8.354;2022-12-07T15:09:46;6.30;99.90
16955;DHT22;8594;52.052;8.354;2022-12-07T15:12:16;6.10;99.90
16955;DHT22;8594;52.052;8.354;2022-12-07T15:14:43;6.00;99.90
16955;DHT22;8594;52.052;8.354;2022-12-07T15:17:11;5.90;99.90
16955;DHT22;8594;52.052;8.354;2022-12-07T15:19:41;6.00;99.90
16955;DHT22;8594;52.052;8.354;2022-12-07T15:22:08;6.20;99.90
16955;DHT22;8594;52.052;8.354;2022-12-07T15:24:36;6.10;99.90
16955;DHT22;8594;52.052;8.354;2022-12-07T15:27:03;6.00;99.90
16955;DHT22;8594;52.052;8.354;2022-12-07T15:29:30;6.10;99.90
16955;DHT22;8594;52.052;8.354;2022-12-07T15:31:58;6.10;99.90
16955;DHT22;8594;52.052;8.354;2022-12-07T15:34:25;6.10;99.90
16955;DHT22;8594;52.052;8.354;2022-12-07T15:36:55;5.90;99.90
16955;DHT22;8594;52.052;8.354;2022-12-07T15:39:22;6.10;99.90
16955;DHT22;8594;52.052;8.354;2022-12-07T15:41:49;6.20;99.90
16955;DHT22;8594;52.052;8.354;2022-12-07T15:44:16;6.20;99.90
16955;DHT22;8594;52.052;8.354;2022-12-07T15:47:01;6.00;99.90
16955;DHT22;8594;52.052;8.354;2022-12-07T15:49:28;6.10;99.90
16955;DHT22;8594;52.052;8.354;2022-12-07T15:51:56;6.00;99.90
16955;DHT22;8594;52.052;8.354;2022-12-07T15:54:25;6.00;99.90
16955;DHT22;8594;52.052;8.354;2022-12-07T15:56:53;6.10;99.90
16955;DHT22;8594;52.052;8.354;2022-12-07T15:59:21;6.20;99.90
16955;DHT22;8594;52.052;8.354;2022-12-07T16:01:48;6.20;99.90
16955;DHT22;8594;52.052;8.354;2022-12-07T16:04:15;6.30;99.90
16955;DHT22;8594;52.052;8.354;2022-12-07T16:06:42;6.30;99.90
16955;DHT22;8594;52.052;8.354;2022-12-07T16:09:11;6.20;99.90
16955;DHT22;8594;52.052;8.354;2022-12-07T16:11:38;6.00;99.90
16955;DHT22;8594;52.052;8.354;2022-12-07T16:14:05;6.10;99.90
16955;DHT22;8594;52.052;8.354;2022-12-07T16:16:32;6.00;99.90
16955;DHT22;8594;52.052;8.354;2022-12-07T16:18:59;6.20;99.90
16955;DHT22;8594;52.052;8.354;2022-12-07T16:21:26;6.10;99.90
16955;DHT22;8594;52.052;8.354;2022-12-07T16:23:53;6.10;99.90
16955;DHT22;8594;52.052;8.354;2022-12-07T16:26:21;6.10;99.90
16955;DHT22;8594;52.052;8.354;2022-12-07T16:28:49;6.10;99.90
16955;DHT22;8594;52.052;8.354;2022-12-07T16:31:19;6.10;99.90
16955;DHT22;8594;52.052;8.354;2022-12-07T16:33:48;6.10;99.90
16955;DHT22;8594;52.052;8.354;2022-12-07T16:36:16;6.00;99.90
16955;DHT22;8594;52.052;8.354;2022-12-07T16:38:44;6.00;99.90
16955;DHT22;8594;52.052;8.354;2022-12-07T16:41:11;5.90;99.90
16955;DHT22;8594;52.052;8.354;2022-12-07T16:43:40;6.00;99.90
16955;DHT22;8594;52.052;8.354;2022-12-07T16:46:09;6.00;99.90
16955;DHT22;8594;52.052;8.354;2022-12-07T16:48:41;6.00;99.90